Time;durP1;ratioP1;P1;durP2;ratioP2;P2;SDS_P1;SDS_P2;PMS_P1;PMS_P2;Temp;Humidity;BMP_temperature;BMP_pressure;BME280_temperature;BME280_humidity;BME280_pressure;Samples;Min_cycle;Max_cycle;Signal;HPM_P1;HPM_P2
2021/04/09 00:02:17;;;;;;;12.82;4.82;;;3.30;99.90;;;;;;5016550;28;20033;-82
2021/04/09 00:04:43;;;;;;;10.55;5.40;;;3.30;99.90;;;;;;5034074;28;20025;-82
2021/04/09 00:07:08;;;;;;;12.10;5.30;;;3.30;99.90;;;;;;5016424;28;20026;-82
2021/04/09 00:09:35;;;;;;;9.40;4.90;;;3.40;99.90;;;;;;5034023;28;20025;-82
2021/04/09 00:12:01;;;;;;;13.30;5.13;;;3.70;99.90;;;;;;5016358;28;20044;-82
2021/04/09 00:14:27;;;;;;;9.48;5.00;;;3.80;99.90;;;;;;5016304;28;20044;-82
2021/04/09 00:16:53;;;;;;;9.35;4.90;;;3.60;99.90;;;;;;5033869;28;20473;-82
2021/04/09 00:19:23;;;;;;;9.32;4.22;;;3.50;99.90;;;;;;5016284;28;20095;-82
2021/04/09 00:21:49;;;;;;;8.75;4.28;;;3.40;99.90;;;;;;5033941;28;20034;-82
2021/04/09 00:24:15;;;;;;;9.73;4.43;;;3.30;99.90;;;;;;5033956;28;20543;-82
2021/04/09 00:26:41;;;;;;;13.35;5.43;;;3.60;99.90;;;;;;5016044;28;20381;-81
2021/04/09 00:29:07;;;;;;;9.30;5.03;;;3.50;99.90;;;;;;5033785;28;20076;-81
2021/04/09 00:31:34;;;;;;;12.13;4.90;;;3.40;99.90;;;;;;5016061;28;20366;-82
2021/04/09 00:34:00;;;;;;;11.15;4.53;;;3.40;99.90;;;;;;5033964;28;20032;-82
2021/04/09 00:36:26;;;;;;;8.40;4.63;;;3.20;99.90;;;;;;5022147;28;20049;-81
2021/04/09 00:38:53;;;;;;;9.48;4.43;;;3.10;99.90;;;;;;5053544;28;20535;-84
2021/04/09 00:41:19;;;;;;;11.02;5.00;;;3.10;99.90;;;;;;5051698;28;20036;-81
2021/04/09 00:43:45;;;;;;;8.48;4.25;;;3.50;99.90;;;;;;5053647;28;20021;-83
2021/04/09 00:46:11;;;;;;;8.45;4.25;;;3.70;99.90;;;;;;5052198;28;20151;-83
2021/04/09 00:48:37;;;;;;;10.18;4.93;;;3.90;99.90;;;;;;5053515;28;20025;-84
2021/04/09 00:51:05;;;;;;;10.25;5.38;;;3.90;99.80;;;;;;5053714;28;20051;-84
2021/04/09 00:53:31;;;;;;;10.45;5.55;;;3.50;99.70;;;;;;5052153;28;20357;-83
2021/04/09 00:55:57;;;;;;;10.60;5.25;;;3.20;99.70;;;;;;5052117;28;20032;-84
2021/04/09 00:58:22;;;;;;;8.27;4.65;;;2.90;99.90;;;;;;5052321;28;20449;-81
2021/04/09 01:00:48;;;;;;;11.02;4.60;;;3.30;99.90;;;;;;5053894;28;20052;-83
2021/04/09 01:03:14;;;;;;;8.95;4.65;;;3.70;99.90;;;;;;5053334;28;20092;-83
2021/04/09 01:05:40;;;;;;;11.45;4.63;;;3.30;99.50;;;;;;5051920;28;20029;-81
2021/04/09 01:08:07;;;;;;;10.25;4.90;;;3.00;99.90;;;;;;5052293;28;20475;-83
2021/04/09 01:10:33;;;;;;;8.25;4.13;;;3.10;99.90;;;;;;5053234;28;20464;-83
2021/04/09 01:12:59;;;;;;;8.35;4.43;;;3.30;99.90;;;;;;5053305;28;20055;-83
2021/04/09 01:15:25;;;;;;;10.65;4.97;;;3.30;99.90;;;;;;5051865;28;20044;-83
2021/04/09 01:18:03;;;;;;;9.57;4.68;;;2.90;99.90;;;;;;5051938;28;20029;-83
2021/04/09 01:21:24;;;;;;;10.18;4.50;;;2.60;99.90;;;;;;5053479;28;20108;-83
2021/04/09 01:24:02;;;;;;;8.82;4.40;;;2.60;99.90;;;;;;4968573;28;20431;-83
2021/04/09 01:26:57;;;;;;;7.03;4.32;;;2.80;99.90;;;;;;5051714;28;20029;-83
2021/04/09 01:29:48;;;;;;;8.90;4.43;;;2.90;99.90;;;;;;5051880;28;20032;-83
2021/04/09 01:32:15;;;;;;;7.93;4.65;;;3.30;99.90;;;;;;5053145;28;20017;-83
2021/04/09 01:34:48;;;;;;;10.95;4.47;;;3.10;99.90;;;;;;5051787;28;20025;-82
2021/04/09 01:37:21;;;;;;;8.57;4.82;;;3.00;99.90;;;;;;5051687;28;20047;-83
2021/04/09 01:40:01;;;;;;;8.10;5.25;;;2.80;99.90;;;;;;5053029;28;20025;-82
2021/04/09 01:42:28;;;;;;;12.20;5.45;;;2.70;99.90;;;;;;5053033;28;20028;-82
2021/04/09 01:44:55;;;;;;;10.45;4.95;;;2.80;99.90;;;;;;5051631;28;20053;-82
2021/04/09 01:47:24;;;;;;;9.75;4.95;;;2.90;99.90;;;;;;5051360;28;20021;-82
2021/04/09 01:49:54;;;;;;;8.43;4.55;;;2.90;99.90;;;;;;5052880;28;20017;-82
2021/04/09 01:52:21;;;;;;;8.40;4.85;;;2.90;99.90;;;;;;5056066;28;20032;-82
2021/04/09 01:54:48;;;;;;;9.63;4.97;;;3.10;99.90;;;;;;5055470;28;20072;-82
2021/04/09 01:57:17;;;;;;;11.63;4.65;;;3.10;99.90;;;;;;5056928;28;20031;-82
2021/04/09 01:59:43;;;;;;;7.53;4.85;;;3.00;99.90;;;;;;5055423;28;20032;-82
2021/04/09 02:02:09;;;;;;;11.48;5.00;;;2.80;99.90;;;;;;5055814;28;20029;-82
2021/04/09 02:04:38;;;;;;;11.18;5.53;;;2.90;99.90;;;;;;5055335;28;20021;-82
2021/04/09 02:07:05;;;;;;;9.05;4.60;;;3.00;99.90;;;;;;5055804;28;20488;-82
2021/04/09 02:09:31;;;;;;;11.48;4.68;;;3.30;99.90;;;;;;5056336;28;20398;-82
2021/04/09 02:11:58;;;;;;;11.48;5.53;;;3.20;99.90;;;;;;5056563;28;20108;-82
2021/04/09 02:14:26;;;;;;;12.50;5.43;;;3.10;99.90;;;;;;5057982;28;20032;-82
2021/04/09 02:16:53;;;;;;;8.23;4.45;;;3.00;99.90;;;;;;5057650;28;20025;-82
2021/04/09 02:19:22;;;;;;;9.88;4.70;;;3.10;99.90;;;;;;5057244;28;20028;-82
2021/04/09 02:21:48;;;;;;;10.57;5.38;;;3.00;99.90;;;;;;5058412;28;20025;-82
2021/04/09 02:24:13;;;;;;;11.77;5.55;;;2.90;99.90;;;;;;5057028;28;20392;-81
2021/04/09 02:26:39;;;;;;;9.68;4.97;;;3.10;99.90;;;;;;5058823;28;20510;-81
2021/04/09 02:29:05;;;;;;;11.07;4.90;;;3.10;99.90;;;;;;5057540;28;20048;-82
2021/04/09 02:31:31;;;;;;;13.18;5.45;;;3.20;99.90;;;;;;5058165;28;20024;-82
2021/04/09 02:33:57;;;;;;;10.68;5.50;;;2.90;99.90;;;;;;5060483;28;20052;-82
2021/04/09 02:36:25;;;;;;;8.82;4.38;;;2.60;99.90;;;;;;5058026;28;20048;-81
2021/04/09 02:38:58;;;;;;;8.57;5.03;;;2.90;99.90;;;;;;5060015;28;20435;-82
2021/04/09 02:41:28;;;;;;;10.68;4.65;;;2.70;99.90;;;;;;5058854;28;20495;-82
2021/04/09 02:43:55;;;;;;;12.05;5.75;;;2.60;99.90;;;;;;5059885;28;20035;-81
2021/04/09 02:46:31;;;;;;;9.80;5.28;;;2.60;99.90;;;;;;5060374;28;20024;-82
2021/04/09 02:49:02;;;;;;;12.68;5.63;;;2.40;99.90;;;;;;5060804;28;20029;-81
2021/04/09 02:51:30;;;;;;;14.65;5.85;;;2.20;99.90;;;;;;5061991;28;20025;-81
2021/04/09 02:53:59;;;;;;;10.55;5.75;;;2.10;99.90;;;;;;5060694;28;20043;-82
2021/04/09 02:56:26;;;;;;;11.73;5.65;;;2.30;99.90;;;;;;5045221;28;20025;-81
2021/04/09 02:58:55;;;;;;;10.68;5.75;;;2.00;99.90;;;;;;5062515;28;20025;-81
2021/04/09 03:01:23;;;;;;;11.90;5.05;;;2.60;99.90;;;;;;5064660;28;20518;-81
2021/04/09 03:03:51;;;;;;;10.25;5.25;;;2.70;99.90;;;;;;5065161;28;20028;-81
2021/04/09 03:06:17;;;;;;;7.03;4.50;;;2.40;99.90;;;;;;5063774;28;20124;-82
2021/04/09 03:08:43;;;;;;;10.27;5.10;;;2.40;99.90;;;;;;5064882;28;20017;-81
2021/04/09 03:11:10;;;;;;;10.02;5.70;;;2.20;99.90;;;;;;5070047;28;20051;-82
2021/04/09 03:13:36;;;;;;;9.02;4.80;;;2.10;99.90;;;;;;5072253;28;20047;-82
2021/04/09 03:16:03;;;;;;;8.05;4.40;;;2.00;99.90;;;;;;5072247;28;20024;-81
2021/04/09 03:18:34;;;;;;;11.85;5.45;;;2.20;99.90;;;;;;5072403;28;20025;-81
2021/04/09 03:21:00;;;;;;;9.88;5.32;;;2.40;99.90;;;;;;5071648;28;20029;-81
2021/04/09 03:23:26;;;;;;;9.70;5.20;;;2.20;99.90;;;;;;5072214;28;20029;-82
2021/04/09 03:25:51;;;;;;;11.52;5.38;;;2.20;99.90;;;;;;5072329;28;20033;-81
2021/04/09 03:28:17;;;;;;;12.85;5.32;;;2.10;99.90;;;;;;5070135;28;20032;-82
2021/04/09 03:30:52;;;;;;;11.75;5.55;;;1.90;99.90;;;;;;5070524;28;20074;-81
2021/04/09 03:33:21;;;;;;;10.15;5.00;;;1.80;99.90;;;;;;5070298;28;20047;-81
2021/04/09 03:35:47;;;;;;;9.98;5.40;;;1.90;99.90;;;;;;5069725;28;20029;-81
2021/04/09 03:38:14;;;;;;;13.27;5.60;;;1.90;99.90;;;;;;5066358;28;20049;-81
2021/04/09 03:40:40;;;;;;;10.38;5.13;;;1.80;99.90;;;;;;5065053;28;20031;-81
2021/04/09 03:43:07;;;;;;;13.00;5.65;;;1.90;99.90;;;;;;5064994;28;20096;-81
2021/04/09 03:45:33;;;;;;;10.38;4.75;;;2.10;99.90;;;;;;5063131;28;20028;-81
2021/04/09 03:47:59;;;;;;;11.85;5.80;;;2.30;99.90;;;;;;5062988;28;20090;-81
2021/04/09 03:50:25;;;;;;;9.50;5.78;;;2.00;99.90;;;;;;5064438;28;20092;-81
2021/04/09 03:52:50;;;;;;;9.45;4.82;;;1.60;99.90;;;;;;5061960;28;20021;-82
2021/04/09 03:55:17;;;;;;;12.57;5.15;;;1.80;99.90;;;;;;5063561;28;20053;-81
2021/04/09 03:57:43;;;;;;;9.98;4.70;;;1.90;99.90;;;;;;5060377;28;20036;-81
2021/04/09 04:00:09;;;;;;;10.13;4.82;;;1.60;99.90;;;;;;5060784;28;20536;-81
2021/04/09 04:02:35;;;;;;;8.15;4.60;;;1.80;99.90;;;;;;5059074;28;20082;-81
2021/04/09 04:05:02;;;;;;;9.52;4.70;;;1.90;99.90;;;;;;5057717;28;20037;-81
2021/04/09 04:07:28;;;;;;;10.60;4.95;;;2.30;99.90;;;;;;5056284;28;20093;-81
2021/04/09 04:09:53;;;;;;;11.45;4.97;;;2.40;99.90;;;;;;5056230;28;20060;-81
2021/04/09 04:12:19;;;;;;;10.52;5.13;;;2.40;99.90;;;;;;5056767;28;20468;-81
2021/04/09 04:14:45;;;;;;;8.45;4.32;;;2.50;99.90;;;;;;5054644;28;20431;-81
2021/04/09 04:17:11;;;;;;;8.65;5.00;;;2.60;99.90;;;;;;5055945;28;20025;-81
2021/04/09 04:19:36;;;;;;;7.93;4.55;;;2.80;99.90;;;;;;5055618;28;20464;-81
2021/04/09 04:22:02;;;;;;;9.18;4.88;;;2.30;99.90;;;;;;5055510;28;20025;-81
2021/04/09 04:24:28;;;;;;;10.10;4.78;;;2.30;99.90;;;;;;5054995;28;20453;-81
2021/04/09 04:26:54;;;;;;;7.70;4.55;;;2.50;99.90;;;;;;5053571;28;20039;-81
2021/04/09 04:29:19;;;;;;;11.60;5.32;;;2.70;99.90;;;;;;5056244;28;20075;-81
2021/04/09 04:31:45;;;;;;;10.07;4.63;;;2.70;99.90;;;;;;5054944;28;20048;-81
2021/04/09 04:34:11;;;;;;;10.90;5.30;;;2.60;99.90;;;;;;5054986;28;20028;-81
2021/04/09 04:36:37;;;;;;;32.72;11.77;;;2.60;99.90;;;;;;5052909;28;20083;-81
2021/04/09 04:39:04;;;;;;;27.20;9.40;;;2.30;99.90;;;;;;5054444;28;20049;-81
2021/04/09 04:41:30;;;;;;;13.75;6.63;;;2.20;99.90;;;;;;5052468;28;20025;-81
2021/04/09 04:43:56;;;;;;;12.02;5.88;;;1.90;99.90;;;;;;5053622;28;20113;-81
2021/04/09 04:46:23;;;;;;;12.63;6.50;;;1.90;99.90;;;;;;5052284;28;20432;-81
2021/04/09 04:48:49;;;;;;;12.45;6.60;;;1.70;99.90;;;;;;5053730;28;20017;-81
2021/04/09 04:51:14;;;;;;;17.38;8.00;;;1.90;99.90;;;;;;5054035;28;20032;-82
2021/04/09 04:53:40;;;;;;;17.90;7.03;;;2.10;99.90;;;;;;5052602;28;20025;-81
2021/04/09 04:56:06;;;;;;;16.25;8.55;;;2.00;99.90;;;;;;5052673;28;20090;-82
2021/04/09 04:58:32;;;;;;;14.00;8.02;;;1.90;99.90;;;;;;5052512;28;20021;-81
2021/04/09 05:00:58;;;;;;;14.68;7.85;;;2.10;99.90;;;;;;5052336;28;20040;-81
2021/04/09 05:03:23;;;;;;;11.95;6.55;;;2.10;99.90;;;;;;5053402;28;20052;-81
2021/04/09 05:05:49;;;;;;;11.57;6.50;;;2.20;99.90;;;;;;5053807;28;20053;-81
2021/04/09 05:08:15;;;;;;;19.73;7.20;;;2.50;99.90;;;;;;5053571;28;20029;-81
2021/04/09 05:10:40;;;;;;;12.13;6.32;;;2.40;99.90;;;;;;5053295;28;20036;-81
2021/04/09 05:13:06;;;;;;;13.63;6.18;;;2.30;99.90;;;;;;5053290;28;20028;-81
2021/04/09 05:15:32;;;;;;;11.40;5.75;;;2.30;99.90;;;;;;5051884;28;20481;-81
2021/04/09 05:17:57;;;;;;;12.93;5.30;;;2.20;99.90;;;;;;5051905;28;20033;-81
2021/04/09 05:20:23;;;;;;;10.15;5.63;;;1.80;99.90;;;;;;5053120;28;20029;-81
2021/04/09 05:22:49;;;;;;;10.75;5.45;;;2.00;99.90;;;;;;5053468;28;20021;-81
2021/04/09 05:25:14;;;;;;;9.35;5.40;;;2.10;99.90;;;;;;5051890;28;20033;-81
2021/04/09 05:27:40;;;;;;;12.80;5.70;;;2.00;99.90;;;;;;5056607;28;20021;-81
2021/04/09 05:30:07;;;;;;;10.02;5.18;;;2.30;99.90;;;;;;5057020;28;20523;-81
2021/04/09 05:32:32;;;;;;;11.32;5.03;;;2.40;99.90;;;;;;5055720;28;20032;-81
2021/04/09 05:34:58;;;;;;;8.75;4.65;;;2.50;99.90;;;;;;5055741;28;20025;-82
2021/04/09 05:37:24;;;;;;;11.05;5.43;;;2.50;99.90;;;;;;5055482;28;20118;-81
2021/04/09 05:39:49;;;;;;;11.73;5.07;;;2.40;99.90;;;;;;5055903;28;20017;-82
2021/04/09 05:42:15;;;;;;;11.00;4.90;;;2.50;99.90;;;;;;5057060;28;20017;-82
2021/04/09 05:44:43;;;;;;;10.95;5.07;;;2.40;99.90;;;;;;5057076;28;20022;-82
2021/04/09 05:47:09;;;;;;;10.15;5.18;;;2.30;99.90;;;;;;5055407;28;20117;-82
2021/04/09 05:49:35;;;;;;;9.57;5.63;;;2.60;99.90;;;;;;5055488;28;20392;-82
2021/04/09 05:52:05;;;;;;;11.32;5.22;;;2.60;99.90;;;;;;5055385;28;20149;-82
2021/04/09 05:54:32;;;;;;;14.13;5.32;;;2.70;99.90;;;;;;5055382;28;20025;-82
2021/04/09 05:56:59;;;;;;;6.95;4.80;;;2.60;99.90;;;;;;5055060;28;20029;-82
2021/04/09 05:59:26;;;;;;;9.05;4.70;;;2.70;99.90;;;;;;5056234;28;20051;-82
2021/04/09 06:01:52;;;;;;;10.30;5.03;;;2.80;99.90;;;;;;5055210;28;20109;-82
2021/04/09 06:04:18;;;;;;;9.48;5.53;;;2.90;99.90;;;;;;5055147;28;20049;-82
2021/04/09 06:06:43;;;;;;;9.38;4.35;;;2.80;99.90;;;;;;5054982;28;20417;-82
2021/04/09 06:09:09;;;;;;;9.27;5.40;;;3.10;99.90;;;;;;5055066;28;20029;-83
2021/04/09 06:11:35;;;;;;;15.75;5.53;;;3.30;99.90;;;;;;5055177;28;20431;-83
2021/04/09 06:14:01;;;;;;;12.88;6.00;;;3.10;99.90;;;;;;5055072;28;20029;-83
2021/04/09 06:16:27;;;;;;;12.65;6.28;;;3.10;99.90;;;;;;5056227;28;20372;-83
2021/04/09 06:18:53;;;;;;;8.50;5.05;;;3.10;99.90;;;;;;5056142;28;20086;-83
2021/04/09 06:21:18;;;;;;;9.27;4.65;;;3.20;99.90;;;;;;5056279;28;20420;-83
2021/04/09 06:23:44;;;;;;;15.02;5.20;;;3.50;99.90;;;;;;5054956;28;20032;-83
2021/04/09 06:26:10;;;;;;;11.48;5.40;;;3.60;99.90;;;;;;5055113;28;20119;-83
2021/04/09 06:28:36;;;;;;;12.32;6.22;;;3.80;99.90;;;;;;5055189;28;20021;-83
2021/04/09 06:31:02;;;;;;;8.60;5.50;;;3.60;99.90;;;;;;5056304;28;20032;-83
2021/04/09 06:33:27;;;;;;;8.80;5.15;;;3.70;99.90;;;;;;5056821;28;20024;-83
2021/04/09 06:35:53;;;;;;;12.63;6.05;;;3.80;99.90;;;;;;5056093;28;20380;-83
2021/04/09 06:38:19;;;;;;;7.53;4.63;;;4.20;99.90;;;;;;5017658;28;20037;-83
2021/04/09 06:40:45;;;;;;;11.90;6.40;;;4.30;99.90;;;;;;5019057;28;20031;-83
2021/04/09 06:43:11;;;;;;;13.10;6.40;;;4.40;99.90;;;;;;5018806;28;20124;-84
2021/04/09 06:45:39;;;;;;;8.02;4.63;;;4.50;99.90;;;;;;5036142;28;20477;-84
2021/04/09 06:48:06;;;;;;;8.90;4.03;;;4.70;99.90;;;;;;5018724;28;20440;-84
2021/04/09 06:50:32;;;;;;;11.70;4.97;;;4.90;99.90;;;;;;5019346;28;20481;-84
2021/04/09 06:52:57;;;;;;;9.38;4.60;;;5.10;99.90;;;;;;5019201;28;20022;-85
2021/04/09 06:55:24;;;;;;;12.50;5.60;;;5.40;99.90;;;;;;5018545;28;20536;-85
2021/04/09 06:57:52;;;;;;;6.50;4.10;;;5.40;99.90;;;;;;5018653;28;20150;-85
2021/04/09 07:00:20;;;;;;;9.20;4.60;;;5.50;99.90;;;;;;5017988;28;20048;-85
2021/04/09 07:02:46;;;;;;;10.35;4.68;;;5.60;99.90;;;;;;5017451;28;20029;-85
2021/04/09 07:05:12;;;;;;;11.02;4.50;;;5.80;99.50;;;;;;5017607;28;20029;-85
2021/04/09 07:07:38;;;;;;;12.18;5.20;;;5.90;98.80;;;;;;5017688;28;20021;-84
2021/04/09 07:10:06;;;;;;;12.65;5.30;;;5.90;99.40;;;;;;5017591;28;20028;-85
2021/04/09 07:12:33;;;;;;;11.88;4.93;;;5.90;99.90;;;;;;5017375;28;20036;-85
2021/04/09 07:15:04;;;;;;;11.90;5.20;;;5.70;98.70;;;;;;5017466;28;20045;-85
2021/04/09 07:17:32;;;;;;;13.85;6.47;;;5.90;98.80;;;;;;5017326;28;20388;-85
2021/04/09 07:20:16;;;;;;;10.18;4.57;;;6.00;99.90;;;;;;5017314;28;20023;-84
2021/04/09 07:22:43;;;;;;;12.88;4.93;;;6.20;98.80;;;;;;5017323;28;20045;-85
2021/04/09 07:25:11;;;;;;;11.55;5.28;;;6.20;99.10;;;;;;5017209;28;21980;-85
2021/04/09 07:27:38;;;;;;;15.57;4.70;;;6.30;98.90;;;;;;5034929;28;20414;-85
2021/04/09 07:30:06;;;;;;;5.95;3.85;;;6.30;98.60;;;;;;5017282;28;20136;-85
2021/04/09 07:32:34;;;;;;;8.75;3.95;;;6.50;97.30;;;;;;5017064;28;20109;-85
2021/04/09 07:35:03;;;;;;;9.68;3.83;;;6.60;96.90;;;;;;5016994;28;20017;-85
2021/04/09 07:37:53;;;;;;;7.78;4.30;;;6.60;96.80;;;;;;5039988;28;20481;-85
2021/04/09 07:40:32;;;;;;;5.75;3.78;;;6.60;96.80;;;;;;5053463;28;20021;-85
2021/04/09 07:42:59;;;;;;;6.13;3.75;;;6.60;96.40;;;;;;5054456;28;20025;-85
2021/04/09 07:45:29;;;;;;;6.18;3.85;;;6.60;96.70;;;;;;5053210;28;20032;-84
2021/04/09 07:47:58;;;;;;;12.50;4.70;;;6.70;96.70;;;;;;5053312;28;20465;-85
2021/04/09 07:50:40;;;;;;;10.57;3.90;;;6.70;96.50;;;;;;5053021;28;20017;-85
2021/04/09 07:53:14;;;;;;;10.75;4.40;;;6.80;96.00;;;;;;5053894;28;20138;-84
2021/04/09 07:55:39;;;;;;;10.50;4.28;;;6.90;96.30;;;;;;5059905;28;20437;-89
2021/04/09 07:58:23;;;;;;;15.30;4.93;;;6.80;95.80;;;;;;5054530;28;20060;-89
2021/04/09 08:00:51;;;;;;;12.43;4.32;;;6.80;95.80;;;;;;5054213;28;20025;-90
2021/04/09 08:03:41;;;;;;;9.68;4.25;;;6.80;96.00;;;;;;5054412;28;20033;-90
2021/04/09 08:06:20;;;;;;;12.20;4.30;;;6.80;96.00;;;;;;5043248;28;20033;-90
2021/04/09 08:08:48;;;;;;;11.20;3.85;;;6.80;96.10;;;;;;5055909;28;20486;-89
2021/04/09 08:11:18;;;;;;;13.20;4.30;;;6.90;95.50;;;;;;5054983;28;20025;-89
2021/04/09 08:13:55;;;;;;;7.97;3.97;;;7.00;95.10;;;;;;5055113;28;20075;-89
2021/04/09 08:16:38;;;;;;;11.60;4.38;;;6.90;95.20;;;;;;5055301;28;20075;-89
2021/04/09 08:19:13;;;;;;;13.18;5.25;;;6.90;95.40;;;;;;5056587;28;20028;-89
2021/04/09 08:21:41;;;;;;;10.13;5.45;;;6.90;95.50;;;;;;5054736;28;20049;-89
2021/04/09 08:24:09;;;;;;;9.68;4.40;;;6.90;95.50;;;;;;5056338;28;20036;-89
2021/04/09 08:26:36;;;;;;;15.27;4.65;;;6.90;95.80;;;;;;5055113;28;20032;-89
2021/04/09 08:29:03;;;;;;;18.23;4.18;;;6.90;94.60;;;;;;5056816;28;20029;-89
2021/04/09 08:31:30;;;;;;;9.23;3.60;;;6.90;94.80;;;;;;5056763;28;20017;-89
2021/04/09 08:33:56;;;;;;;9.10;4.00;;;6.90;94.80;;;;;;5055715;28;20032;-89
2021/04/09 08:36:22;;;;;;;9.90;4.25;;;7.00;94.80;;;;;;5054502;28;20051;-89
2021/04/09 08:38:48;;;;;;;9.68;3.90;;;6.90;94.50;;;;;;5055441;28;20029;-88
2021/04/09 08:41:15;;;;;;;9.82;4.15;;;7.00;94.30;;;;;;5055385;28;20021;-87
2021/04/09 08:43:41;;;;;;;11.45;4.22;;;7.00;93.90;;;;;;5056713;28;20025;-86
2021/04/09 08:46:07;;;;;;;9.52;3.67;;;7.00;94.00;;;;;;5055530;28;20381;-88
2021/04/09 08:48:37;;;;;;;11.18;4.15;;;7.00;93.80;;;;;;5056165;28;20519;-89
2021/04/09 08:51:04;;;;;;;14.45;3.97;;;7.00;94.10;;;;;;5056567;28;20044;-88
2021/04/09 08:53:31;;;;;;;10.13;4.18;;;7.10;94.20;;;;;;5055102;28;20017;-89
2021/04/09 08:55:57;;;;;;;12.90;4.30;;;7.20;93.90;;;;;;5054766;28;20029;-89
2021/04/09 08:58:23;;;;;;;12.10;3.85;;;7.30;94.20;;;;;;5054915;28;20033;-90
2021/04/09 09:00:51;;;;;;;7.03;3.80;;;7.40;93.50;;;;;;5055060;28;20040;-89
2021/04/09 09:03:23;;;;;;;14.40;4.28;;;7.40;93.60;;;;;;5054981;28;20476;-89
2021/04/09 09:06:00;;;;;;;11.85;3.70;;;7.60;93.90;;;;;;5055210;28;20025;-89
2021/04/09 09:08:44;;;;;;;9.70;4.82;;;7.60;93.60;;;;;;5055248;28;20021;-89
2021/04/09 09:11:12;;;;;;;10.45;4.65;;;7.70;93.60;;;;;;5055749;28;20021;-89
2021/04/09 09:13:42;;;;;;;12.70;3.78;;;7.70;93.30;;;;;;5055421;28;20115;-89
2021/04/09 09:16:20;;;;;;;10.55;4.35;;;7.80;93.10;;;;;;5054619;28;20029;-89
2021/04/09 09:18:56;;;;;;;10.93;4.32;;;7.90;93.00;;;;;;5056282;28;20025;-89
2021/04/09 09:21:25;;;;;;;8.77;4.30;;;7.90;92.80;;;;;;5055150;28;20029;-88
2021/04/09 09:24:01;;;;;;;9.50;3.97;;;8.00;92.50;;;;;;5055013;28;20032;-89
2021/04/09 09:26:37;;;;;;;12.85;4.05;;;8.00;92.40;;;;;;5054921;28;20393;-89
2021/04/09 09:29:07;;;;;;;8.32;3.67;;;8.30;92.00;;;;;;5055692;28;20039;-89
2021/04/09 09:31:36;;;;;;;7.50;3.80;;;8.50;91.80;;;;;;5054538;28;20400;-88
2021/04/09 09:34:20;;;;;;;11.93;3.70;;;8.60;91.30;;;;;;5054078;28;20108;-88
2021/04/09 09:37:09;;;;;;;;;;;8.70;90.80;;;;;;5054786;28;20056;-88
2021/04/09 09:39:48;;;;;;;10.93;3.88;;;8.90;90.60;;;;;;5054089;28;19905;-88
2021/04/09 09:42:20;;;;;;;7.22;3.60;;;9.00;90.20;;;;;;5053595;28;20047;-88
2021/04/09 09:44:56;;;;;;;11.65;4.28;;;9.00;90.40;;;;;;5053537;28;20037;-88
2021/04/09 09:47:28;;;;;;;7.43;3.60;;;9.20;90.50;;;;;;5053277;28;20021;-87
2021/04/09 09:50:03;;;;;;;9.00;4.00;;;9.50;90.20;;;;;;5053533;28;20047;-88
2021/04/09 09:53:10;;;;;;;12.02;4.78;;;9.60;89.30;;;;;;5053164;28;20380;-88
2021/04/09 09:55:41;;;;;;;10.68;4.68;;;9.70;88.10;;;;;;5054833;28;20032;-85
2021/04/09 09:58:14;;;;;;;8.55;3.33;;;9.90;88.70;;;;;;5052915;28;20021;-86
2021/04/09 10:00:59;;;;;;;14.60;3.67;;;10.00;87.30;;;;;;5052811;28;20021;-85
2021/04/09 10:03:33;;;;;;;12.07;4.20;;;10.20;88.20;;;;;;5052911;28;20549;-86
2021/04/09 10:06:05;;;;;;;9.85;3.78;;;10.40;87.90;;;;;;5053310;28;20124;-85
2021/04/09 10:08:36;;;;;;;5.45;3.33;;;10.50;87.70;;;;;;5053318;28;20063;-85
2021/04/09 10:11:21;;;;;;;7.43;3.72;;;10.60;87.10;;;;;;5052838;28;20021;-85
2021/04/09 10:13:48;;;;;;;10.95;3.33;;;10.50;86.00;;;;;;5056027;28;20066;-86
2021/04/09 10:16:19;;;;;;;8.45;3.60;;;10.50;86.90;;;;;;5057215;28;20054;-86
2021/04/09 10:18:49;;;;;;;9.85;3.70;;;10.70;85.60;;;;;;5061444;28;20477;-86
2021/04/09 10:21:17;;;;;;;12.52;3.50;;;10.80;85.10;;;;;;5062834;28;20028;-86
2021/04/09 10:23:45;;;;;;;9.50;3.97;;;10.80;83.80;;;;;;5058067;28;20040;-86
2021/04/09 10:26:13;;;;;;;11.90;4.25;;;10.80;84.60;;;;;;5057156;28;20079;-86
2021/04/09 10:28:41;;;;;;;26.10;10.57;;;11.00;84.50;;;;;;5056582;28;20492;-86
2021/04/09 10:31:09;;;;;;;8.00;3.70;;;11.10;84.70;;;;;;5056656;28;20032;-85
2021/04/09 10:33:45;;;;;;;5.63;2.35;;;11.10;77.60;;;;;;5055621;28;20451;-86
2021/04/09 10:36:16;;;;;;;6.10;2.25;;;11.20;75.20;;;;;;5053178;28;20025;-85
2021/04/09 10:38:43;;;;;;;9.75;3.05;;;11.10;74.50;;;;;;5036871;28;20033;-86
2021/04/09 10:41:24;;;;;;;10.05;2.40;;;11.30;73.40;;;;;;5036338;28;20029;-85
2021/04/09 10:43:58;;;;;;;7.13;2.33;;;11.40;74.00;;;;;;5018773;28;20029;-86
2021/04/09 10:46:26;;;;;;;3.63;1.98;;;11.40;72.90;;;;;;5018694;28;20033;-84
2021/04/09 10:48:59;;;;;;;7.22;1.70;;;11.40;70.90;;;;;;5018553;28;20021;-86
2021/04/09 10:51:33;;;;;;;15.32;2.70;;;11.50;70.80;;;;;;5018829;28;20028;-85
2021/04/09 10:53:59;;;;;;;13.52;3.70;;;11.60;70.80;;;;;;5019670;28;20044;-84
2021/04/09 10:56:24;;;;;;;7.18;3.15;;;11.70;70.90;;;;;;5018937;28;20030;-86
2021/04/09 10:58:50;;;;;;;8.27;2.08;;;11.90;71.40;;;;;;5037000;28;20029;-86
2021/04/09 11:01:16;;;;;;;8.80;2.10;;;12.10;70.10;;;;;;5018658;28;20022;-85
2021/04/09 11:03:43;;;;;;;8.20;3.50;;;12.10;66.90;;;;;;5018815;28;20021;-86
2021/04/09 11:06:11;;;;;;;10.07;4.03;;;12.10;66.90;;;;;;5018244;28;20204;-85
2021/04/09 11:08:39;;;;;;;12.95;2.20;;;12.00;65.60;;;;;;5018572;28;20053;-85
2021/04/09 11:11:11;;;;;;;15.18;4.65;;;11.90;64.20;;;;;;5018363;28;20113;-85
2021/04/09 11:13:40;;;;;;;7.55;2.05;;;11.90;64.20;;;;;;5036479;28;20550;-84
2021/04/09 11:16:09;;;;;;;9.55;3.13;;;11.90;64.70;;;;;;5018569;28;20064;-84
2021/04/09 11:18:52;;;;;;;6.85;1.98;;;11.90;67.20;;;;;;5036272;28;20026;-84
2021/04/09 11:21:41;;;;;;;13.57;2.30;;;11.90;66.30;;;;;;5018406;28;20026;-85
2021/04/09 11:24:08;;;;;;;4.18;1.95;;;12.10;65.50;;;;;;5035868;28;20026;-86
2021/04/09 11:26:35;;;;;;;6.75;2.28;;;12.30;64.30;;;;;;5019455;28;20559;-86
2021/04/09 11:29:01;;;;;;;6.45;2.47;;;12.50;64.70;;;;;;5037209;28;20017;-87
2021/04/09 11:31:27;;;;;;;5.82;1.85;;;12.70;65.30;;;;;;5037308;28;20025;-85
2021/04/09 11:34:09;;;;;;;5.32;2.22;;;12.80;64.10;;;;;;5037420;28;20071;-85
2021/04/09 11:36:45;;;;;;;6.28;1.70;;;12.80;63.40;;;;;;5027101;28;20061;-86
2021/04/09 11:39:19;;;;;;;8.60;2.30;;;12.70;62.90;;;;;;5056870;28;20045;-88
2021/04/09 11:41:54;;;;;;;6.85;1.85;;;12.80;64.30;;;;;;5055207;28;20455;-86
2021/04/09 11:44:28;;;;;;;15.35;2.33;;;13.00;63.00;;;;;;5054265;28;20091;-86
2021/04/09 11:47:22;;;;;;;3.58;2.00;;;13.10;64.20;;;;;;5054256;28;20078;-86
2021/04/09 11:50:01;;;;;;;3.47;1.83;;;13.30;62.40;;;;;;5055866;28;20025;-87
2021/04/09 11:52:28;;;;;;;4.05;1.77;;;14.70;60.00;;;;;;5055117;28;20029;-86
2021/04/09 11:54:54;;;;;;;12.38;2.20;;;15.00;60.30;;;;;;5055478;28;20017;-87
2021/04/09 11:57:24;;;;;;;3.85;1.67;;;16.30;57.30;;;;;;5055204;28;20036;-84
2021/04/09 11:59:51;;;;;;;8.10;3.60;;;16.70;55.60;;;;;;5056125;28;20021;-87
2021/04/09 12:02:17;;;;;;;4.13;2.20;;;16.90;81.30;;;;;;5056433;28;20035;-86
2021/04/09 12:04:44;;;;;;;11.45;4.28;;;17.40;55.90;;;;;;5054773;28;20029;-87
2021/04/09 12:07:16;;;;;;;5.07;2.20;;;16.90;54.40;;;;;;5054924;28;20035;-87
2021/04/09 12:09:43;;;;;;;6.47;2.50;;;16.50;54.80;;;;;;5054209;28;20102;-87
2021/04/09 12:12:12;;;;;;;3.60;1.80;;;15.90;55.30;;;;;;5054298;28;20036;-87
2021/04/09 12:14:46;;;;;;;4.30;1.80;;;15.60;55.10;;;;;;5054188;28;20136;-88
2021/04/09 12:17:14;;;;;;;9.27;2.08;;;15.50;56.60;;;;;;5054130;28;20032;-85
2021/04/09 12:19:41;;;;;;;5.85;2.30;;;15.50;56.40;;;;;;5054907;28;20028;-86
2021/04/09 12:22:08;;;;;;;4.40;2.10;;;15.60;55.70;;;;;;5055060;28;20485;-86
2021/04/09 12:24:34;;;;;;;3.30;1.50;;;15.90;55.40;;;;;;5053446;28;20119;-87
2021/04/09 12:27:00;;;;;;;2.42;1.63;;;16.00;54.30;;;;;;5053729;28;20031;-86
2021/04/09 12:29:27;;;;;;;5.65;2.00;;;;;;;;;;5053830;28;20024;-88
2021/04/09 12:31:52;;;;;;;3.88;1.90;;;16.60;53.30;;;;;;5053786;28;20025;-88
2021/04/09 12:34:19;;;;;;;4.47;1.50;;;16.90;52.70;;;;;;5053736;28;20074;-87
2021/04/09 12:36:48;;;;;;;3.88;1.60;;;17.20;52.00;;;;;;5052171;28;20098;-85
2021/04/09 12:39:15;;;;;;;2.75;1.73;;;17.00;51.90;;;;;;5053522;28;20689;-87
2021/04/09 12:41:40;;;;;;;4.25;1.50;;;17.20;52.10;;;;;;5055165;28;20029;-86
2021/04/09 12:44:09;;;;;;;3.88;1.50;;;16.70;51.70;;;;;;5054996;28;20033;-87
2021/04/09 12:46:35;;;;;;;7.07;2.22;;;16.40;51.70;;;;;;5054291;28;20020;-87
2021/04/09 12:49:01;;;;;;;6.45;2.13;;;16.30;52.50;;;;;;5054368;28;20025;-87
2021/04/09 12:51:27;;;;;;;5.68;1.70;;;16.60;52.20;;;;;;5056192;28;20530;-88
2021/04/09 12:53:53;;;;;;;3.53;1.25;;;16.70;51.50;;;;;;5053545;28;20025;-84
2021/04/09 12:56:19;;;;;;;3.90;1.40;;;16.50;49.10;;;;;;5054042;28;20021;-86
2021/04/09 12:58:45;;;;;;;6.55;1.58;;;16.30;47.90;;;;;;5054861;28;20558;-85
2021/04/09 13:01:12;;;;;;;6.03;1.48;;;16.60;47.50;;;;;;5053371;28;20025;-84